Aviation Digital Data Service (ADDS)

Output produced by METARs form (0654 UTC 19 February 2019)
found at http://www.aviationweather.gov/metar/data/
 
METAR text: CYQK 190600Z 29004KT 20SM FEW250 M20/M24 A3041 RMK CI2 SLP342
Conditions at: CYQK (KENORA AIRPORT , ON, CA) observed 0600 UTC 19 February 2019
Temperature: -20.0°C (-4°F)
Dewpoint: -24.0°C (-11°F) [RH = 70%]
Pressure (altimeter): 30.41 inches Hg (1029.9 mb)
[Sea-level pressure: 1034.2 mb]
Winds: from the WNW (290 degrees) at 5 MPH (4 knots; 2.1 m/s)
Visibility: 20 miles (32 km)
Ceiling: at least 12,000 feet AGL
Clouds: few clouds at 25000 feet AGL
Weather: no significant weather observed at this time

METAR text: CYQK 190500Z 31006KT 20SM SKC M20/M24 A3041 RMK SLP342
Conditions at: CYQK (KENORA AIRPORT , ON, CA) observed 0500 UTC 19 February 2019
Temperature: -20.0°C (-4°F)
Dewpoint: -24.0°C (-11°F) [RH = 70%]
Pressure (altimeter): 30.41 inches Hg (1029.9 mb)
[Sea-level pressure: 1034.2 mb]
Winds: from the NW (310 degrees) at 7 MPH (6 knots; 3.1 m/s)
Visibility: 20 miles (32 km)
Ceiling: at least 12,000 feet AGL
Clouds: clear skies
Weather: no significant weather observed at this time

METAR text: CYQK 190400Z 29005KT 20SM SKC M19/M23 A3042 RMK SLP347
Conditions at: CYQK (KENORA AIRPORT , ON, CA) observed 0400 UTC 19 February 2019
Temperature: -19.0°C (-2°F)
Dewpoint: -23.0°C (-9°F) [RH = 71%]
Pressure (altimeter): 30.42 inches Hg (1030.2 mb)
[Sea-level pressure: 1034.7 mb]
Winds: from the WNW (290 degrees) at 6 MPH (5 knots; 2.6 m/s)
Visibility: 20 miles (32 km)
Ceiling: at least 12,000 feet AGL
Clouds: clear skies
Weather: no significant weather observed at this time

METAR text: CYQK 190300Z 30006KT 20SM FEW250 M18/M22 A3042 RMK CI2 SLP347
Conditions at: CYQK (KENORA AIRPORT , ON, CA) observed 0300 UTC 19 February 2019
Temperature: -18.0°C (-0°F)
Dewpoint: -22.0°C (-8°F) [RH = 71%]
Pressure (altimeter): 30.42 inches Hg (1030.2 mb)
[Sea-level pressure: 1034.7 mb]
Winds: from the WNW (300 degrees) at 7 MPH (6 knots; 3.1 m/s)
Visibility: 20 miles (32 km)
Ceiling: at least 12,000 feet AGL
Clouds: few clouds at 25000 feet AGL
Weather: no significant weather observed at this time

METAR text: CYQK 190200Z 30005KT 20SM FEW250 M17/M21 A3042 RMK CI2 SLP348
Conditions at: CYQK (KENORA AIRPORT , ON, CA) observed 0200 UTC 19 February 2019
Temperature: -17.0°C ( 1°F)
Dewpoint: -21.0°C (-6°F) [RH = 71%]
Pressure (altimeter): 30.42 inches Hg (1030.2 mb)
[Sea-level pressure: 1034.8 mb]
Winds: from the WNW (300 degrees) at 6 MPH (5 knots; 2.6 m/s)
Visibility: 20 miles (32 km)
Ceiling: at least 12,000 feet AGL
Clouds: few clouds at 25000 feet AGL
Weather: no significant weather observed at this time

METAR text: CYQK 190100Z 27004KT 20SM FEW100 FEW230 M16/M21 A3042 RMK AC1CI1 SLP349
Conditions at: CYQK (KENORA AIRPORT , ON, CA) observed 0100 UTC 19 February 2019
Temperature: -16.0°C ( 3°F)
Dewpoint: -21.0°C (-6°F) [RH = 65%]
Pressure (altimeter): 30.42 inches Hg (1030.2 mb)
[Sea-level pressure: 1034.9 mb]
Winds: from the W (270 degrees) at 5 MPH (4 knots; 2.1 m/s)
Visibility: 20 miles (32 km)
Ceiling: at least 12,000 feet AGL
Clouds: few clouds at 10000 feet AGL
few clouds at 23000 feet AGL
Weather: no significant weather observed at this time

METAR text: CYQK 190000Z 27003KT 20SM SCT110 SCT230 M17/M21 A3042 RMK AC3CI1 SLP349
Conditions at: CYQK (KENORA AIRPORT , ON, CA) observed 0000 UTC 19 February 2019
Temperature: -17.0°C ( 1°F)
Dewpoint: -21.0°C (-6°F) [RH = 71%]
Pressure (altimeter): 30.42 inches Hg (1030.2 mb)
[Sea-level pressure: 1034.9 mb]
Winds: from the W (270 degrees) at 3 MPH (3 knots; 1.5 m/s)
Visibility: 20 miles (32 km)
Ceiling: at least 12,000 feet AGL
Clouds: scattered clouds at 11000 feet AGL
scattered clouds at 23000 feet AGL
Weather: no significant weather observed at this time

METAR text: CYQK 182300Z 34004KT 20SM FEW028 SCT110 BKN230 M15/M20 A3041 RMK SF1AC3CI2 SF TR SLP345
Conditions at: CYQK (KENORA AIRPORT , ON, CA) observed 2300 UTC 18 February 2019
Temperature: -15.0°C ( 5°F)
Dewpoint: -20.0°C (-4°F) [RH = 66%]
Pressure (altimeter): 30.41 inches Hg (1029.9 mb)
[Sea-level pressure: 1034.5 mb]
Winds: from the NNW (340 degrees) at 5 MPH (4 knots; 2.1 m/s)
Visibility: 20 miles (32 km)
Ceiling: 23000 feet AGL
Clouds: few clouds at 2800 feet AGL
scattered clouds at 11000 feet AGL
broken clouds at 23000 feet AGL
Weather: no significant weather observed at this time

METAR text: CYQK 182200Z 33004KT 310V010 20SM FEW030 SCT120 BKN230 M14/M20 A3041 RMK SC1AC3CI1 SLP342
Conditions at: CYQK (KENORA AIRPORT , ON, CA) observed 2200 UTC 18 February 2019
Temperature: -14.0°C ( 7°F)
Dewpoint: -20.0°C (-4°F) [RH = 60%]
Pressure (altimeter): 30.41 inches Hg (1029.9 mb)
[Sea-level pressure: 1034.2 mb]
Winds: from the NNW (330 degrees) at 5 MPH (4 knots; 2.1 m/s)
Visibility: 20 miles (32 km)
Ceiling: 23000 feet AGL
Clouds: few clouds at 3000 feet AGL
scattered clouds at 12000 feet AGL
broken clouds at 23000 feet AGL
Weather: no significant weather observed at this time

METAR text: CYQK 182100Z 35005KT 300V020 20SM FEW030 BKN130 BKN230 M14/M20 A3042 RMK SF1AC6CI1 SF TR SLP344
Conditions at: CYQK (KENORA AIRPORT , ON, CA) observed 2100 UTC 18 February 2019
Temperature: -14.0°C ( 7°F)
Dewpoint: -20.0°C (-4°F) [RH = 60%]
Pressure (altimeter): 30.42 inches Hg (1030.2 mb)
[Sea-level pressure: 1034.4 mb]
Winds: from the N (350 degrees) at 6 MPH (5 knots; 2.6 m/s)
Visibility: 20 miles (32 km)
Ceiling: 13000 feet AGL
Clouds: few clouds at 3000 feet AGL
broken clouds at 13000 feet AGL
broken clouds at 23000 feet AGL
Weather: no significant weather observed at this time

METAR text: CYQK 182000Z 35004KT 270V010 20SM FEW030 SCT130 BKN230 M15/M21 A3042 RMK SF1AC4CI3 SF TR SLP345
Conditions at: CYQK (KENORA AIRPORT , ON, CA) observed 2000 UTC 18 February 2019
Temperature: -15.0°C ( 5°F)
Dewpoint: -21.0°C (-6°F) [RH = 60%]
Pressure (altimeter): 30.42 inches Hg (1030.2 mb)
[Sea-level pressure: 1034.5 mb]
Winds: from the N (350 degrees) at 5 MPH (4 knots; 2.1 m/s)
Visibility: 20 miles (32 km)
Ceiling: 23000 feet AGL
Clouds: few clouds at 3000 feet AGL
scattered clouds at 13000 feet AGL
broken clouds at 23000 feet AGL
Weather: no significant weather observed at this time

METAR text: CYQK 181900Z 35005KT 290V020 20SM FEW070 FEW110 BKN230 M15/M21 A3043 RMK AC1AC1CI6 AC TR SLP348
Conditions at: CYQK (KENORA AIRPORT , ON, CA) observed 1900 UTC 18 February 2019
Temperature: -15.0°C ( 5°F)
Dewpoint: -21.0°C (-6°F) [RH = 60%]
Pressure (altimeter): 30.43 inches Hg (1030.6 mb)
[Sea-level pressure: 1034.8 mb]
Winds: from the N (350 degrees) at 6 MPH (5 knots; 2.6 m/s)
Visibility: 20 miles (32 km)
Ceiling: 23000 feet AGL
Clouds: few clouds at 7000 feet AGL
few clouds at 11000 feet AGL
broken clouds at 23000 feet AGL
Weather: no significant weather observed at this time

METAR text: CYQK 181800Z 33003KT 280V360 20SM FEW080 FEW150 BKN230 M15/M21 A3044 RMK AC1AC1CI3 SLP351
Conditions at: CYQK (KENORA AIRPORT , ON, CA) observed 1800 UTC 18 February 2019
Temperature: -15.0°C ( 5°F)
Dewpoint: -21.0°C (-6°F) [RH = 60%]
Pressure (altimeter): 30.44 inches Hg (1030.9 mb)
[Sea-level pressure: 1035.1 mb]
Winds: from the NNW (330 degrees) at 3 MPH (3 knots; 1.5 m/s)
Visibility: 20 miles (32 km)
Ceiling: 23000 feet AGL
Clouds: few clouds at 8000 feet AGL
few clouds at 15000 feet AGL
broken clouds at 23000 feet AGL
Weather: no significant weather observed at this time

METAR text: CYQK 181700Z 30004KT 20SM FEW150 BKN250 M17/M22 A3043 RMK AC1CI5 SLP351
Conditions at: CYQK (KENORA AIRPORT , ON, CA) observed 1700 UTC 18 February 2019
Temperature: -17.0°C ( 1°F)
Dewpoint: -22.0°C (-8°F) [RH = 65%]
Pressure (altimeter): 30.43 inches Hg (1030.6 mb)
[Sea-level pressure: 1035.1 mb]
Winds: from the WNW (300 degrees) at 5 MPH (4 knots; 2.1 m/s)
Visibility: 20 miles (32 km)
Ceiling: 25000 feet AGL
Clouds: few clouds at 15000 feet AGL
broken clouds at 25000 feet AGL
Weather: no significant weather observed at this time

METAR text: CYQK 181600Z 01002KT 20SM FEW085 SCT150 BKN230 M19/M22 A3043 RMK AC1AC2CI2 SLP348
Conditions at: CYQK (KENORA AIRPORT , ON, CA) observed 1600 UTC 18 February 2019
Temperature: -19.0°C (-2°F)
Dewpoint: -22.0°C (-8°F) [RH = 77%]
Pressure (altimeter): 30.43 inches Hg (1030.6 mb)
[Sea-level pressure: 1034.8 mb]
Winds: from the N (10 degrees) at 2 MPH (2 knots; 1.0 m/s)
Visibility: 20 miles (32 km)
Ceiling: 23000 feet AGL
Clouds: few clouds at 8500 feet AGL
scattered clouds at 15000 feet AGL
broken clouds at 23000 feet AGL
Weather: no significant weather observed at this time

METAR text: CYQK 181500Z 02004KT 20SM FEW050 SCT085 BKN230 M21/M24 A3041 RMK SC1AC2CI2 SLP346
Conditions at: CYQK (KENORA AIRPORT , ON, CA) observed 1500 UTC 18 February 2019
Temperature: -21.0°C (-6°F)
Dewpoint: -24.0°C (-11°F) [RH = 77%]
Pressure (altimeter): 30.41 inches Hg (1029.9 mb)
[Sea-level pressure: 1034.6 mb]
Winds: from the NNE (20 degrees) at 5 MPH (4 knots; 2.1 m/s)
Visibility: 20 miles (32 km)
Ceiling: 23000 feet AGL
Clouds: few clouds at 5000 feet AGL
scattered clouds at 8500 feet AGL
broken clouds at 23000 feet AGL
Weather: no significant weather observed at this time

METAR text: CYQK 181400Z 01004KT 20SM BKN088 M22/M25 A3040 RMK AC6 SLP340
Conditions at: CYQK (KENORA AIRPORT , ON, CA) observed 1400 UTC 18 February 2019
Temperature: -22.0°C (-8°F)
Dewpoint: -25.0°C (-13°F) [RH = 77%]
Pressure (altimeter): 30.40 inches Hg (1029.5 mb)
[Sea-level pressure: 1034.0 mb]
Winds: from the N (10 degrees) at 5 MPH (4 knots; 2.1 m/s)
Visibility: 20 miles (32 km)
Ceiling: 8800 feet AGL
Clouds: broken clouds at 8800 feet AGL
Weather: no significant weather observed at this time

METAR text: CYQK 181300Z 36005KT 20SM BKN087 M23/M25 A3038 RMK AC5 SLP334
Conditions at: CYQK (KENORA AIRPORT , ON, CA) observed 1300 UTC 18 February 2019
Temperature: -23.0°C (-9°F)
Dewpoint: -25.0°C (-13°F) [RH = 84%]
Pressure (altimeter): 30.38 inches Hg (1028.9 mb)
[Sea-level pressure: 1033.4 mb]
Winds: from the N (360 degrees) at 6 MPH (5 knots; 2.6 m/s)
Visibility: 20 miles (32 km)
Ceiling: 8700 feet AGL
Clouds: broken clouds at 8700 feet AGL
Weather: no significant weather observed at this time

METAR text: CYQK 181200Z 36006KT 20SM SCT089 M23/M25 A3037 RMK AC3 SLP330
Conditions at: CYQK (KENORA AIRPORT , ON, CA) observed 1200 UTC 18 February 2019
Temperature: -23.0°C (-9°F)
Dewpoint: -25.0°C (-13°F) [RH = 84%]
Pressure (altimeter): 30.37 inches Hg (1028.5 mb)
[Sea-level pressure: 1033.0 mb]
Winds: from the N (360 degrees) at 7 MPH (6 knots; 3.1 m/s)
Visibility: 20 miles (32 km)
Ceiling: at least 12,000 feet AGL
Clouds: scattered clouds at 8900 feet AGL
Weather: no significant weather observed at this time

METAR text: CYQK 181100Z 36005KT 20SM SCT140 M22/M25 A3036 RMK AC3 SLP326
Conditions at: CYQK (KENORA AIRPORT , ON, CA) observed 1100 UTC 18 February 2019
Temperature: -22.0°C (-8°F)
Dewpoint: -25.0°C (-13°F) [RH = 77%]
Pressure (altimeter): 30.36 inches Hg (1028.2 mb)
[Sea-level pressure: 1032.6 mb]
Winds: from the N (360 degrees) at 6 MPH (5 knots; 2.6 m/s)
Visibility: 20 miles (32 km)
Ceiling: at least 12,000 feet AGL
Clouds: scattered clouds at 14000 feet AGL
Weather: no significant weather observed at this time

METAR text: CYQK 181000Z 36005KT 20SM SCT100 BKN140 M21/M24 A3036 RMK AC3AC2 SLP324
Conditions at: CYQK (KENORA AIRPORT , ON, CA) observed 1000 UTC 18 February 2019
Temperature: -21.0°C (-6°F)
Dewpoint: -24.0°C (-11°F) [RH = 77%]
Pressure (altimeter): 30.36 inches Hg (1028.2 mb)
[Sea-level pressure: 1032.4 mb]
Winds: from the N (360 degrees) at 6 MPH (5 knots; 2.6 m/s)
Visibility: 20 miles (32 km)
Ceiling: 14000 feet AGL
Clouds: scattered clouds at 10000 feet AGL
broken clouds at 14000 feet AGL
Weather: no significant weather observed at this time

METAR text: CYQK 180900Z 36005KT 20SM SCT100 BKN140 M21/M23 A3036 RMK AC4AC3 SLP323
Conditions at: CYQK (KENORA AIRPORT , ON, CA) observed 0900 UTC 18 February 2019
Temperature: -21.0°C (-6°F)
Dewpoint: -23.0°C (-9°F) [RH = 84%]
Pressure (altimeter): 30.36 inches Hg (1028.2 mb)
[Sea-level pressure: 1032.3 mb]
Winds: from the N (360 degrees) at 6 MPH (5 knots; 2.6 m/s)
Visibility: 20 miles (32 km)
Ceiling: 14000 feet AGL
Clouds: scattered clouds at 10000 feet AGL
broken clouds at 14000 feet AGL
Weather: no significant weather observed at this time

METAR text: CYQK 180800Z 01006KT 20SM SCT100 BKN140 M20/M23 A3035 RMK AC4AC3 SLP319
Conditions at: CYQK (KENORA AIRPORT , ON, CA) observed 0800 UTC 18 February 2019
Temperature: -20.0°C (-4°F)
Dewpoint: -23.0°C (-9°F) [RH = 77%]
Pressure (altimeter): 30.35 inches Hg (1027.9 mb)
[Sea-level pressure: 1031.9 mb]
Winds: from the N (10 degrees) at 7 MPH (6 knots; 3.1 m/s)
Visibility: 20 miles (32 km)
Ceiling: 14000 feet AGL
Clouds: scattered clouds at 10000 feet AGL
broken clouds at 14000 feet AGL
Weather: no significant weather observed at this time

METAR text: CYQK 180700Z 02005KT 20SM BKN110 M20/M22 A3034 RMK AC6 SLP314
Conditions at: CYQK (KENORA AIRPORT , ON, CA) observed 0700 UTC 18 February 2019
Temperature: -20.0°C (-4°F)
Dewpoint: -22.0°C (-8°F) [RH = 84%]
Pressure (altimeter): 30.34 inches Hg (1027.5 mb)
[Sea-level pressure: 1031.4 mb]
Winds: from the NNE (20 degrees) at 6 MPH (5 knots; 2.6 m/s)
Visibility: 20 miles (32 km)
Ceiling: 11000 feet AGL
Clouds: broken clouds at 11000 feet AGL
Weather: no significant weather observed at this time

METAR text: CYQK 180600Z 03006KT 20SM BKN110 M19/M22 A3031 RMK AC5 SLP306
Conditions at: CYQK (KENORA AIRPORT , ON, CA) observed 0600 UTC 18 February 2019
Temperature: -19.0°C (-2°F)
Dewpoint: -22.0°C (-8°F) [RH = 77%]
Pressure (altimeter): 30.31 inches Hg (1026.5 mb)
[Sea-level pressure: 1030.6 mb]
Winds: from the NNE (30 degrees) at 7 MPH (6 knots; 3.1 m/s)
Visibility: 20 miles (32 km)
Ceiling: 11000 feet AGL
Clouds: broken clouds at 11000 feet AGL
Weather: no significant weather observed at this time

METAR text: CYQK 180500Z 03004KT 20SM BKN100 M18/M21 A3031 RMK AC6 SLP306
Conditions at: CYQK (KENORA AIRPORT , ON, CA) observed 0500 UTC 18 February 2019
Temperature: -18.0°C (-0°F)
Dewpoint: -21.0°C (-6°F) [RH = 77%]
Pressure (altimeter): 30.31 inches Hg (1026.5 mb)
[Sea-level pressure: 1030.6 mb]
Winds: from the NNE (30 degrees) at 5 MPH (4 knots; 2.1 m/s)
Visibility: 20 miles (32 km)
Ceiling: 10000 feet AGL
Clouds: broken clouds at 10000 feet AGL
Weather: no significant weather observed at this time

METAR text: CYQK 180400Z 03006KT 20SM SCT100 BKN240 M17/M20 A3030 RMK AC3CI3 SLP303
Conditions at: CYQK (KENORA AIRPORT , ON, CA) observed 0400 UTC 18 February 2019
Temperature: -17.0°C ( 1°F)
Dewpoint: -20.0°C (-4°F) [RH = 77%]
Pressure (altimeter): 30.30 inches Hg (1026.2 mb)
[Sea-level pressure: 1030.3 mb]
Winds: from the NNE (30 degrees) at 7 MPH (6 knots; 3.1 m/s)
Visibility: 20 miles (32 km)
Ceiling: 24000 feet AGL
Clouds: scattered clouds at 10000 feet AGL
broken clouds at 24000 feet AGL
Weather: no significant weather observed at this time

METAR text: CYQK 180300Z 02006KT 20SM BKN240 M17/M20 A3029 RMK CI6 SLP302
Conditions at: CYQK (KENORA AIRPORT , ON, CA) observed 0300 UTC 18 February 2019
Temperature: -17.0°C ( 1°F)
Dewpoint: -20.0°C (-4°F) [RH = 77%]
Pressure (altimeter): 30.29 inches Hg (1025.8 mb)
[Sea-level pressure: 1030.2 mb]
Winds: from the NNE (20 degrees) at 7 MPH (6 knots; 3.1 m/s)
Visibility: 20 miles (32 km)
Ceiling: 24000 feet AGL
Clouds: broken clouds at 24000 feet AGL
Weather: no significant weather observed at this time

METAR text: CYQK 180200Z 03005KT 15SM BKN240 M16/M19 A3028 RMK CI7 SLP298
Conditions at: CYQK (KENORA AIRPORT , ON, CA) observed 0200 UTC 18 February 2019
Temperature: -16.0°C ( 3°F)
Dewpoint: -19.0°C (-2°F) [RH = 78%]
Pressure (altimeter): 30.28 inches Hg (1025.5 mb)
[Sea-level pressure: 1029.8 mb]
Winds: from the NNE (30 degrees) at 6 MPH (5 knots; 2.6 m/s)
Visibility: 15 miles (24 km)
Ceiling: 24000 feet AGL
Clouds: broken clouds at 24000 feet AGL
Weather: no significant weather observed at this time

METAR text: CYQK 180100Z 02005KT 20SM FEW160 BKN240 M15/M19 A3028 RMK AC2CI4 SLP296
Conditions at: CYQK (KENORA AIRPORT , ON, CA) observed 0100 UTC 18 February 2019
Temperature: -15.0°C ( 5°F)
Dewpoint: -19.0°C (-2°F) [RH = 71%]
Pressure (altimeter): 30.28 inches Hg (1025.5 mb)
[Sea-level pressure: 1029.6 mb]
Winds: from the NNE (20 degrees) at 6 MPH (5 knots; 2.6 m/s)
Visibility: 20 miles (32 km)
Ceiling: 24000 feet AGL
Clouds: few clouds at 16000 feet AGL
broken clouds at 24000 feet AGL
Weather: no significant weather observed at this time

METAR text: CYQK 180000Z 02005KT 20SM BKN230 M14/M17 A3026 RMK CI7 SLP289
Conditions at: CYQK (KENORA AIRPORT , ON, CA) observed 0000 UTC 18 February 2019
Temperature: -14.0°C ( 7°F)
Dewpoint: -17.0°C ( 1°F) [RH = 78%]
Pressure (altimeter): 30.26 inches Hg (1024.8 mb)
[Sea-level pressure: 1028.9 mb]
Winds: from the NNE (20 degrees) at 6 MPH (5 knots; 2.6 m/s)
Visibility: 20 miles (32 km)
Ceiling: 23000 feet AGL
Clouds: broken clouds at 23000 feet AGL
Weather: no significant weather observed at this time

METAR text: CYQK 172300Z 02006KT 20SM BKN230 M12/M17 A3024 RMK CI7 SLP282
Conditions at: CYQK (KENORA AIRPORT , ON, CA) observed 2300 UTC 17 February 2019
Temperature: -12.0°C (10°F)
Dewpoint: -17.0°C ( 1°F) [RH = 66%]
Pressure (altimeter): 30.24 inches Hg (1024.1 mb)
[Sea-level pressure: 1028.2 mb]
Winds: from the NNE (20 degrees) at 7 MPH (6 knots; 3.1 m/s)
Visibility: 20 miles (32 km)
Ceiling: 23000 feet AGL
Clouds: broken clouds at 23000 feet AGL
Weather: no significant weather observed at this time

METAR text: CYQK 172200Z 03006KT 20SM FEW018 BKN230 M11/M17 A3023 RMK SC1CI6 SC TR SLP278
Conditions at: CYQK (KENORA AIRPORT , ON, CA) observed 2200 UTC 17 February 2019
Temperature: -11.0°C (12°F)
Dewpoint: -17.0°C ( 1°F) [RH = 61%]
Pressure (altimeter): 30.23 inches Hg (1023.8 mb)
[Sea-level pressure: 1027.8 mb]
Winds: from the NNE (30 degrees) at 7 MPH (6 knots; 3.1 m/s)
Visibility: 20 miles (32 km)
Ceiling: 23000 feet AGL
Clouds: few clouds at 1800 feet AGL
broken clouds at 23000 feet AGL
Weather: no significant weather observed at this time

METAR text: CYQK 172100Z 06008KT 20SM FEW018 BKN230 M11/M17 A3023 RMK SC1CI6 SLP276
Conditions at: CYQK (KENORA AIRPORT , ON, CA) observed 2100 UTC 17 February 2019
Temperature: -11.0°C (12°F)
Dewpoint: -17.0°C ( 1°F) [RH = 61%]
Pressure (altimeter): 30.23 inches Hg (1023.8 mb)
[Sea-level pressure: 1027.6 mb]
Winds: from the ENE (60 degrees) at 9 MPH (8 knots; 4.1 m/s)
Visibility: 20 miles (32 km)
Ceiling: 23000 feet AGL
Clouds: few clouds at 1800 feet AGL
broken clouds at 23000 feet AGL
Weather: no significant weather observed at this time

METAR text: CYQK 172000Z 05007KT 20SM FEW018 BKN230 M11/M17 A3023 RMK SC2CI5 SLP275
Conditions at: CYQK (KENORA AIRPORT , ON, CA) observed 2000 UTC 17 February 2019
Temperature: -11.0°C (12°F)
Dewpoint: -17.0°C ( 1°F) [RH = 61%]
Pressure (altimeter): 30.23 inches Hg (1023.8 mb)
[Sea-level pressure: 1027.5 mb]
Winds: from the NE (50 degrees) at 8 MPH (7 knots; 3.6 m/s)
Visibility: 20 miles (32 km)
Ceiling: 23000 feet AGL
Clouds: few clouds at 1800 feet AGL
broken clouds at 23000 feet AGL
Weather: no significant weather observed at this time

METAR text: CYQK 171900Z 02007KT 350V050 20SM FEW017 BKN230 M11/M16 A3022 RMK SC2CI3 SLP274
Conditions at: CYQK (KENORA AIRPORT , ON, CA) observed 1900 UTC 17 February 2019
Temperature: -11.0°C (12°F)
Dewpoint: -16.0°C ( 3°F) [RH = 67%]
Pressure (altimeter): 30.22 inches Hg (1023.5 mb)
[Sea-level pressure: 1027.4 mb]
Winds: from the NNE (20 degrees) at 8 MPH (7 knots; 3.6 m/s)
Visibility: 20 miles (32 km)
Ceiling: 23000 feet AGL
Clouds: few clouds at 1700 feet AGL
broken clouds at 23000 feet AGL
Weather: no significant weather observed at this time

Forecast for: CYQK (KENORA AIRPORT , ON, CA)
Text: TAF CYQK 190138Z 1902/1914 VRB03KT P6SM SCT120
Forecast period: 0200 to 1100 UTC 19 February 2019
Forecast type: FROM: standard forecast or significant change
Winds: variable direction winds at 3 MPH (3 knots; 1.5 m/s)
Visibility: 6 or more miles 10+ km)
Ceiling: at least 12,000 feet AGL
Clouds: scattered clouds at 12000 feet AGL
Weather: no significant weather forecast for this period
Text: BECMG 1911/1913 19010KT RMK NXT FCST BY 190800Z
Forecast period: 1100 to 1400 UTC 19 February 2019
Forecast type: BECOMING: Conditions expected to become as follows by 1300 UTC 19 February 2019
Winds: from the S (190 degrees) at 12 MPH (10 knots; 5.1 m/s)
Visibility: 6 or more miles 10+ km)
Ceiling: at least 12,000 feet AGL
Clouds: scattered clouds at 12000 feet AGL
Weather: no significant weather forecast for this period